Главная страница
METAR-TAF:

METAR-TAF

Аэропорты :

Пекин, Китай

Шоуду

широта: 39-56N, долгота: 116-17E, высота над уровнем моря: 55 м

Текущие метеонаблюдения

Эта сводка был подготовлена 10 минут назад, в 21:30 UTC
Ветер 2 Узел от восточно-северо-восточный
Температура 11°C
Влажность 87%
Давление 1010 hPa
Видимость: 5000 м
дымка

METAR: ZBAA 252130Z 07001MPS 5000 BR NSC 11/09 Q1010 NOSIG

Время: 05:40 (21:40 UTC)

Прогноз

Эта сводка был подготовлена 6 часа и 20 минут назад, в 15:20 UTC
Прогноз действительный с 25-го 18 UTC до 26-го 18 UTC
Ветер 8 Узел от северный
Видимость 10 км и более
Нет облачности ниже 1500 м, и нет кучево-дождевой облачности

TAF: ZBAA 251520Z 2518/2618 36004MPS CAVOK TX26/2607Z TN11/2521Z

Метеонаблюдения и прогнозы для более 4000 аэропортов (сводки METAR и TAF).

Имеющиеся станции представлены на карте желтыми и красными точками.

Чтобы увидеть название станции, наведите на нее мышь.

Затем щелкните, чтобы увидеть метеонаблюдения и метеопрогнозы.

Управление картой: чтобы увеличить масштаб, щелкните зеленые кнопки с черным крестиком; чтобы уменьшить масштаб, щелкните зеленую кнопку с тире; для просмотра соседних карт щелкайте зеленые стрелки.


METAR-TAF: